»·PEaware :: N929X KSBD-KBFL

N929X :: KSBD-KBFL

FLIGHT INFORMATION

Flight Status: Arrived
Operator: Privately registered:
United States
More flights under this callsign
Pilot: Scott M. (16181)
Aircraft: Unknown
(EPIC)
More flights by this aircraft type
Origin: KSBD San Bernardino Intl
United States
Destination: KBFL Meadows
United States
More flights between these airports :: More routes between these airports
Route:
File this flight plan on PilotEdge
Remarks:
Altitude:
(Current/Filed)
8,500ft
Speed:
(Current/Filed)
174kts
Departed: 11-Jan-18 07:11 PM
Arrived: 11-Jan-18 07:59 PM
Distance/Time
Traveled:
120nm/0:48
Distance/Time
To Go:
Arrived

Flight Plot

Page will automatically refresh every two minutes.


Map Options




Map Legend


Flown Route
Filed Route
Departure Airport
Arrival Airport
Navaid (VOR, NDB)
Fix

Horizontal Profiles

Position Reports

Time Latitude Longitude Heading Altitude Ground
Speed
11-Jan-18 19:07 34.104464 -117.245822 286 1098ft 0kts
11-Jan-18 19:08 34.104464 -117.245822 286 1098ft 0kts
11-Jan-18 19:09 34.104464 -117.245822 286 1098ft 0kts
11-Jan-18 19:10 34.103903 -117.245325 108 1099ft 18kts
11-Jan-18 19:11 34.103761 -117.244725 111 1100ft 12kts
11-Jan-18 19:12 34.098627 -117.242015 178 1102ft 22kts
11-Jan-18 19:13 34.094333 -117.244391 251 1094ft 27kts
11-Jan-18 19:14 34.093052 -117.248715 251 1086ft 28kts
11-Jan-18 19:15 34.091570 -117.250709 152 1082ft 0kts
11-Jan-18 19:16 34.091570 -117.250709 152 1082ft 0kts
11-Jan-18 19:17 34.096158 -117.231472 66 1494ft 129kts
11-Jan-18 19:18 34.120255 -117.221284 307 3169ft 136kts
11-Jan-18 19:19 34.150178 -117.254014 325 4785ft 158kts
11-Jan-18 19:20 34.189344 -117.281307 332 6390ft 162kts
11-Jan-18 19:21 34.227740 -117.303619 334 7974ft 153kts
11-Jan-18 19:22 34.271793 -117.327618 335 8491ft 191kts
11-Jan-18 19:23 34.307495 -117.364397 302 8490ft 176kts
11-Jan-18 19:24 34.331747 -117.415464 300 8437ft 177kts
11-Jan-18 19:25 34.355860 -117.468383 300 8434ft 177kts
11-Jan-18 19:26 34.378768 -117.519362 299 8434ft 170kts
11-Jan-18 19:27 34.401069 -117.569233 299 8435ft 166kts
11-Jan-18 19:28 34.423029 -117.618457 299 8437ft 170kts
11-Jan-18 19:29 34.447034 -117.672329 299 8437ft 191kts
11-Jan-18 19:30 34.472344 -117.729263 299 8434ft 186kts
11-Jan-18 19:31 34.495749 -117.782012 299 8434ft 172kts
11-Jan-18 19:32 34.517796 -117.831771 299 8435ft 164kts
11-Jan-18 19:33 34.538971 -117.879627 299 8436ft 160kts
11-Jan-18 19:34 34.559878 -117.926932 299 8435ft 158kts
11-Jan-18 19:35 34.580505 -117.973672 299 8435ft 158kts
11-Jan-18 19:36 34.601456 -118.021200 299 8435ft 161kts
11-Jan-18 19:37 34.622891 -118.069891 299 8436ft 167kts
11-Jan-18 19:38 34.653460 -118.112584 315 8435ft 171kts
11-Jan-18 19:39 34.687532 -118.153787 315 8435ft 174kts
11-Jan-18 19:40 34.721958 -118.195090 315 8435ft 175kts
11-Jan-18 19:41 34.752949 -118.232218 315 8442ft 175kts
11-Jan-18 19:42 34.787640 -118.273799 315 8444ft 175kts
11-Jan-18 19:43 34.822419 -118.315523 315 8443ft 176kts
11-Jan-18 19:44 34.857228 -118.357336 315 8443ft 176kts
11-Jan-18 19:45 34.891822 -118.398942 315 8443ft 176kts
11-Jan-18 19:46 34.926686 -118.440923 315 8443ft 176kts
11-Jan-18 19:47 34.961339 -118.482706 315 8443ft 176kts
11-Jan-18 19:48 34.996070 -118.524634 315 8443ft 176kts
11-Jan-18 19:49 35.030816 -118.566634 315 8443ft 176kts
11-Jan-18 19:50 35.065561 -118.608683 315 8406ft 177kts
11-Jan-18 19:51 35.099646 -118.649974 316 7930ft 168kts
11-Jan-18 19:52 35.125179 -118.680934 315 7376ft 161kts
11-Jan-18 19:53 35.161639 -118.725205 315 6536ft 156kts
11-Jan-18 19:54 35.191770 -118.761834 315 5806ft 151kts
11-Jan-18 19:55 35.216312 -118.791701 315 5190ft 146kts
11-Jan-18 19:56 35.245021 -118.826677 315 4450ft 145kts
11-Jan-18 19:57 35.270249 -118.857507 315 4399ft 122kts
11-Jan-18 19:58 35.296333 -118.889379 315 4400ft 138kts
11-Jan-18 19:59 35.323300 -118.922342 315 4399ft 136kts
11-Jan-18 20:00 35.349809 -118.954772 315 4398ft 133kts
11-Jan-18 20:01 35.374125 -118.984888 316 3774ft 119kts
11-Jan-18 20:02 35.395685 -119.010876 317 2607ft 92kts
11-Jan-18 20:03 35.413136 -119.031122 317 1427ft 86kts
11-Jan-18 20:04 35.429429 -119.050937 316 582ft 79kts
11-Jan-18 20:05 35.436259 -119.057776 60 492ft 0kts
11-Jan-18 20:06 35.436307 -119.057629 75 493ft 4kts
11-Jan-18 20:07 35.432176 -119.051966 134 493ft 29kts
11-Jan-18 20:08 35.429709 -119.047020 126 494ft 0kts

Navigation Log

Ident Type
1. KSBD Airport
2. KBFL Airport